createdAt,value
2023-01-13T00:01:26.324Z,48.07
2023-01-13T00:03:55.708Z,48.17
2023-01-13T00:06:25.880Z,47.90
2023-01-13T00:08:53.728Z,48.04
2023-01-13T00:11:21.110Z,47.85
2023-01-13T00:13:47.890Z,47.87
2023-01-13T00:16:18.072Z,47.88
2023-01-13T00:18:46.993Z,47.66
2023-01-13T00:21:14.743Z,47.91
2023-01-13T00:23:42.704Z,47.79
2023-01-13T00:26:20.344Z,47.65
2023-01-13T00:28:47.600Z,47.93
2023-01-13T00:31:18.911Z,47.81
2023-01-13T00:33:46.494Z,47.69
2023-01-13T00:36:15.562Z,47.81
2023-01-13T00:38:43.023Z,47.68
2023-01-13T00:41:19.378Z,47.56
2023-01-13T00:43:47.496Z,47.97
2023-01-13T00:46:18.571Z,48.03
2023-01-13T00:48:45.803Z,48.04
2023-01-13T00:51:18.743Z,48.00
2023-01-13T00:53:49.437Z,47.98
2023-01-13T00:56:39.067Z,47.80
2023-01-13T00:59:11.414Z,47.98
2023-01-13T01:01:38.949Z,47.98
2023-01-13T01:04:05.895Z,48.00
2023-01-13T01:06:32.805Z,47.84
2023-01-13T01:08:59.573Z,47.97
2023-01-13T01:11:30.265Z,48.00
2023-01-13T01:14:00.867Z,48.13
2023-01-13T01:16:30.520Z,47.92
2023-01-13T01:18:57.443Z,47.86
2023-01-13T01:21:26.045Z,47.84
2023-01-13T01:23:53.718Z,48.24
2023-01-13T01:26:26.572Z,48.33
2023-01-13T01:28:54.254Z,48.34
2023-01-13T01:31:27.319Z,48.42
2023-01-13T01:33:55.187Z,48.40
2023-01-13T01:36:26.009Z,48.44
2023-01-13T01:38:53.117Z,48.42
2023-01-13T01:41:24.450Z,48.48
2023-01-13T01:44:04.270Z,48.33
2023-01-13T01:46:51.937Z,48.66
2023-01-13T01:49:31.549Z,48.68
2023-01-13T01:52:06.732Z,48.93
2023-01-13T01:54:54.943Z,48.78
2023-01-13T01:57:41.360Z,48.76
2023-01-13T02:00:11.341Z,48.76
2023-01-13T02:02:45.367Z,49.04
2023-01-13T02:05:13.038Z,48.78
2023-01-13T02:07:43.555Z,48.99
2023-01-13T02:10:16.797Z,49.14
2023-01-13T02:12:45.584Z,49.17
2023-01-13T02:15:17.463Z,49.13
2023-01-13T02:18:08.661Z,49.38
2023-01-13T02:21:08.774Z,49.51
2023-01-13T02:24:37.980Z,49.51
2023-01-13T02:27:34.296Z,49.51
2023-01-13T02:30:54.637Z,49.70
2023-01-13T02:34:01.914Z,49.64
2023-01-13T02:37:16.894Z,49.97
2023-01-13T02:40:07.961Z,50.12
2023-01-13T02:42:59.406Z,50.38
2023-01-13T02:45:32.481Z,50.27
2023-01-13T02:48:01.660Z,50.33
2023-01-13T02:50:36.593Z,50.55
2023-01-13T02:53:14.651Z,50.54
2023-01-13T02:55:47.570Z,50.62
2023-01-13T02:58:21.247Z,50.58
2023-01-13T03:00:49.208Z,50.62
2023-01-13T03:03:16.073Z,50.85
2023-01-13T03:05:46.860Z,50.99
2023-01-13T03:08:47.608Z,50.85
2023-01-13T03:11:17.590Z,50.95
2023-01-13T03:13:50.285Z,51.15
2023-01-13T03:16:40.721Z,51.01
2023-01-13T03:19:43.153Z,51.06
2023-01-13T03:22:31.326Z,51.31
2023-01-13T03:25:12.908Z,51.34
2023-01-13T03:27:50.402Z,51.46
2023-01-13T03:30:30.725Z,51.38
2023-01-13T03:33:16.983Z,51.40
2023-01-13T03:35:53.136Z,51.50
2023-01-13T03:38:39.816Z,51.36
2023-01-13T03:41:17.388Z,51.23
2023-01-13T03:44:24.795Z,51.34
2023-01-13T03:47:05.941Z,51.54
2023-01-13T03:49:53.864Z,51.57
2023-01-13T03:52:31.042Z,51.40
2023-01-13T03:55:13.158Z,51.56
2023-01-13T03:58:07.609Z,51.51
2023-01-13T04:00:53.557Z,51.31
2023-01-13T04:03:40.883Z,51.04
2023-01-13T04:06:34.694Z,51.00
2023-01-13T04:09:29.275Z,51.16
2023-01-13T04:12:28.007Z,51.08
2023-01-13T04:14:56.096Z,50.77
2023-01-13T04:17:24.519Z,50.81
2023-01-13T04:19:51.285Z,50.78
2023-01-13T04:22:18.128Z,50.67
2023-01-13T04:24:44.953Z,50.53
2023-01-13T04:27:11.748Z,50.51
2023-01-13T04:29:38.519Z,50.67
2023-01-13T04:32:05.363Z,50.48
2023-01-13T04:34:32.246Z,50.35
2023-01-13T04:36:59.007Z,50.54
2023-01-13T04:39:25.785Z,50.72
2023-01-13T04:41:59.160Z,50.36
2023-01-13T04:44:26.925Z,50.37
2023-01-13T04:46:54.029Z,50.28
2023-01-13T04:49:20.794Z,50.23
2023-01-13T04:51:47.637Z,50.19
2023-01-13T04:54:14.461Z,50.26
2023-01-13T04:56:41.239Z,50.17
2023-01-13T04:59:10.794Z,49.99
2023-01-13T05:01:38.566Z,49.99
2023-01-13T05:04:07.598Z,49.94
2023-01-13T05:06:34.500Z,49.85
2023-01-13T05:09:01.319Z,50.01
2023-01-13T05:11:46.671Z,49.95
2023-01-13T05:14:31.829Z,49.95
2023-01-13T05:17:01.171Z,49.97
2023-01-13T05:19:34.156Z,49.93
2023-01-13T05:22:20.871Z,49.94
2023-01-13T05:25:06.645Z,49.62
2023-01-13T05:27:34.172Z,49.92
2023-01-13T05:30:01.388Z,49.79
2023-01-13T05:32:28.200Z,49.87
2023-01-13T05:34:55.968Z,49.89
2023-01-13T05:37:24.012Z,49.75
2023-01-13T05:40:09.066Z,49.83
2023-01-13T05:42:54.337Z,49.82
2023-01-13T05:45:21.141Z,49.89
2023-01-13T05:47:47.985Z,49.87
2023-01-13T05:50:15.315Z,49.83
2023-01-13T05:52:43.310Z,49.69
2023-01-13T05:55:11.399Z,49.85
2023-01-13T05:57:38.193Z,49.84
2023-01-13T06:00:06.118Z,49.83
2023-01-13T06:02:38.551Z,49.91
2023-01-13T06:05:05.567Z,49.80
2023-01-13T06:07:32.332Z,49.91
2023-01-13T06:09:59.125Z,50.04
2023-01-13T06:12:25.922Z,49.99
2023-01-13T06:14:52.726Z,49.92
2023-01-13T06:17:19.520Z,50.12
2023-01-13T06:19:46.387Z,50.04
2023-01-13T06:22:24.658Z,50.22
2023-01-13T06:24:53.721Z,50.06
2023-01-13T06:27:22.151Z,50.15
2023-01-13T06:29:49.709Z,50.25
2023-01-13T06:32:25.297Z,49.81
2023-01-13T06:35:06.251Z,50.08
2023-01-13T06:37:34.348Z,50.11
2023-01-13T06:40:03.598Z,50.15
2023-01-13T06:42:54.921Z,50.02
2023-01-13T06:45:24.574Z,50.08
2023-01-13T06:47:51.821Z,50.18
2023-01-13T06:50:19.183Z,50.08
2023-01-13T06:52:45.959Z,50.52
2023-01-13T06:55:12.885Z,50.07
2023-01-13T06:57:56.070Z,50.09
2023-01-13T07:00:25.122Z,50.32
2023-01-13T07:02:52.220Z,50.24
2023-01-13T07:05:20.193Z,50.26
2023-01-13T07:07:47.029Z,50.21
2023-01-13T07:10:22.244Z,50.22
2023-01-13T07:13:08.212Z,50.13
2023-01-13T07:15:35.619Z,49.97
2023-01-13T07:18:03.583Z,49.96
2023-01-13T07:20:31.106Z,49.82
2023-01-13T07:22:58.635Z,50.02
2023-01-13T07:25:25.623Z,49.87
2023-01-13T07:27:52.451Z,49.96
2023-01-13T07:30:19.391Z,50.00
2023-01-13T07:32:46.495Z,49.62
2023-01-13T07:35:13.310Z,49.88
2023-01-13T07:37:40.271Z,49.81
2023-01-13T07:40:08.091Z,49.78
2023-01-13T07:42:56.827Z,49.97
2023-01-13T07:45:23.623Z,50.04
2023-01-13T07:47:52.778Z,49.89
2023-01-13T07:50:21.446Z,49.97
2023-01-13T07:52:48.281Z,49.79
2023-01-13T07:55:15.150Z,49.91
2023-01-13T07:57:41.936Z,50.05
2023-01-13T08:00:12.049Z,50.32
2023-01-13T08:02:39.732Z,50.29
2023-01-13T08:05:07.316Z,50.01
2023-01-13T08:07:34.244Z,50.21
2023-01-13T08:10:02.422Z,50.07
2023-01-13T08:12:51.920Z,50.26
2023-01-13T08:15:21.349Z,50.29
2023-01-13T08:17:48.136Z,50.53
2023-01-13T08:20:15.041Z,50.35
2023-01-13T08:22:41.855Z,50.61
2023-01-13T08:25:08.833Z,50.53
2023-01-13T08:27:35.683Z,50.37
2023-01-13T08:30:02.495Z,50.54
2023-01-13T08:32:29.251Z,50.49
2023-01-13T08:34:56.001Z,50.52
2023-01-13T08:37:22.808Z,50.55
2023-01-13T08:39:49.783Z,50.64
2023-01-13T08:42:16.580Z,50.79
2023-01-13T08:44:43.379Z,50.42
2023-01-13T08:47:10.369Z,50.34
2023-01-13T08:49:37.247Z,50.09
2023-01-13T08:52:04.695Z,50.27
2023-01-13T08:54:31.584Z,50.46
2023-01-13T08:56:58.501Z,50.90
2023-01-13T08:59:25.660Z,50.86
2023-01-13T09:01:52.654Z,51.19
2023-01-13T09:04:25.897Z,51.29
2023-01-13T09:06:52.739Z,51.52
2023-01-13T09:09:19.749Z,51.51
2023-01-13T09:12:08.565Z,51.73
2023-01-13T09:14:37.833Z,51.88
2023-01-13T09:17:04.901Z,51.94
2023-01-13T09:19:31.717Z,52.30
2023-01-13T09:21:58.550Z,52.17
2023-01-13T09:24:25.782Z,52.33
2023-01-13T09:26:53.096Z,52.47
2023-01-13T09:29:20.519Z,52.42
2023-01-13T09:31:47.581Z,52.45
2023-01-13T09:34:38.629Z,52.30
2023-01-13T09:37:07.116Z,52.64
2023-01-13T09:39:35.461Z,52.45
2023-01-13T09:42:57.917Z,52.61
2023-01-13T09:45:45.913Z,52.43
2023-01-13T09:48:26.685Z,52.51
2023-01-13T09:51:17.413Z,52.21
2023-01-13T09:53:55.586Z,52.09
2023-01-13T09:56:23.422Z,52.19
2023-01-13T09:58:50.240Z,52.26
2023-01-13T10:01:47.851Z,52.43
2023-01-13T10:04:15.793Z,52.13
2023-01-13T10:06:48.360Z,52.32
2023-01-13T10:09:27.837Z,52.04
2023-01-13T10:12:16.427Z,52.21
2023-01-13T10:14:52.871Z,52.01
2023-01-13T10:18:14.824Z,52.30
2023-01-13T10:21:23.025Z,52.33
2023-01-13T10:24:01.627Z,52.41
2023-01-13T10:26:54.602Z,52.41
2023-01-13T10:29:27.911Z,52.33
2023-01-13T10:31:57.064Z,52.30
2023-01-13T10:34:25.629Z,52.25
2023-01-13T10:37:08.327Z,52.47
2023-01-13T10:39:46.717Z,52.63
2023-01-13T10:42:17.636Z,52.29
2023-01-13T10:44:54.771Z,52.38
2023-01-13T10:47:36.894Z,52.46
2023-01-13T10:50:12.847Z,52.51
2023-01-13T10:52:55.096Z,52.35
2023-01-13T10:55:33.542Z,52.59
2023-01-13T10:58:17.848Z,52.66
2023-01-13T11:00:46.486Z,52.66
2023-01-13T11:03:23.817Z,52.60
2023-01-13T11:05:56.667Z,52.62
2023-01-13T11:08:30.754Z,52.76
2023-01-13T11:10:59.488Z,53.03
2023-01-13T11:14:02.641Z,53.18
2023-01-13T11:16:29.841Z,53.08
2023-01-13T11:19:14.101Z,53.38
2023-01-13T11:22:05.537Z,53.56
2023-01-13T11:24:40.329Z,53.54
2023-01-13T11:27:29.620Z,53.92
2023-01-13T11:30:23.028Z,54.12
2023-01-13T11:33:13.889Z,54.31
2023-01-13T11:36:20.473Z,54.54
2023-01-13T11:38:54.921Z,55.22
2023-01-13T11:41:42.308Z,55.81
2023-01-13T11:44:25.474Z,56.17
2023-01-13T11:46:54.465Z,55.67
2023-01-13T11:49:29.452Z,55.06
2023-01-13T11:52:39.466Z,54.33
2023-01-13T11:55:37.724Z,53.58
2023-01-13T11:58:23.488Z,52.70
2023-01-13T12:01:36.028Z,51.73
2023-01-13T12:04:24.698Z,50.29
2023-01-13T12:07:19.516Z,49.18
2023-01-13T12:10:37.640Z,48.73
2023-01-13T12:13:47.984Z,47.71
2023-01-13T12:16:23.479Z,47.33
2023-01-13T12:19:19.301Z,46.85
2023-01-13T12:22:15.639Z,46.25
2023-01-13T12:25:14.592Z,46.18
2023-01-13T12:27:48.208Z,45.30
2023-01-13T12:30:53.188Z,45.40
2023-01-13T12:33:22.526Z,45.15
2023-01-13T12:36:12.671Z,45.36
2023-01-13T12:38:48.516Z,45.78
2023-01-13T12:42:12.176Z,45.74
2023-01-13T12:45:27.028Z,46.77
2023-01-13T12:47:54.346Z,46.85
2023-01-13T12:50:24.661Z,46.85
2023-01-13T12:52:56.917Z,46.95
2023-01-13T12:55:36.749Z,47.07
2023-01-13T12:58:14.678Z,47.17
2023-01-13T13:00:41.287Z,47.03
2023-01-13T13:03:10.947Z,47.46
2023-01-13T13:06:03.034Z,47.33
2023-01-13T13:08:51.542Z,47.25
2023-01-13T13:11:58.322Z,47.36
2023-01-13T13:14:48.253Z,47.45
2023-01-13T13:17:29.955Z,47.70
2023-01-13T13:19:59.534Z,47.61
2023-01-13T13:22:26.183Z,47.79
2023-01-13T13:24:55.827Z,47.93
2023-01-13T13:27:52.678Z,47.86
2023-01-13T13:30:34.869Z,47.69
2023-01-13T13:33:39.141Z,47.86
2023-01-13T13:36:50.133Z,47.92
2023-01-13T13:39:45.948Z,47.77
2023-01-13T13:43:04.513Z,47.93
2023-01-13T13:45:50.032Z,47.86
2023-01-13T13:48:30.890Z,48.25
2023-01-13T13:51:02.912Z,48.29
2023-01-13T13:53:40.156Z,48.64
2023-01-13T13:56:23.076Z,48.81
2023-01-13T13:58:50.577Z,48.98
2023-01-13T14:01:33.901Z,49.53
2023-01-13T14:04:16.428Z,49.45
2023-01-13T14:07:18.390Z,49.47
2023-01-13T14:09:56.358Z,49.65
2023-01-13T14:12:26.038Z,49.81
2023-01-13T14:14:56.697Z,49.77
2023-01-13T14:17:26.874Z,50.13
2023-01-13T14:20:07.771Z,50.08
2023-01-13T14:22:34.982Z,50.34
2023-01-13T14:25:05.734Z,50.46
2023-01-13T14:27:33.304Z,50.44
2023-01-13T14:30:02.126Z,50.55
2023-01-13T14:32:36.525Z,50.76
2023-01-13T14:35:06.954Z,50.40
2023-01-13T14:37:40.589Z,50.53
2023-01-13T14:40:33.236Z,50.45
2023-01-13T14:43:01.509Z,50.34
2023-01-13T14:45:29.098Z,50.28
2023-01-13T14:47:57.992Z,50.34
2023-01-13T14:50:31.356Z,50.39
2023-01-13T14:53:01.016Z,50.30
2023-01-13T14:55:31.637Z,50.49
2023-01-13T14:58:20.528Z,50.48
2023-01-13T15:00:48.365Z,50.40
2023-01-13T15:03:17.322Z,50.65
2023-01-13T15:05:48.039Z,50.92
2023-01-13T15:08:14.753Z,51.06
2023-01-13T15:11:00.734Z,51.22
2023-01-13T15:13:44.801Z,50.96
2023-01-13T15:16:29.213Z,51.33
2023-01-13T15:18:57.584Z,51.12
2023-01-13T15:21:25.200Z,51.08
2023-01-13T15:23:51.961Z,51.28
2023-01-13T15:26:23.498Z,51.17
2023-01-13T15:28:51.497Z,51.27
2023-01-13T15:31:19.112Z,51.08
2023-01-13T15:33:46.091Z,51.02
2023-01-13T15:36:33.314Z,50.83
2023-01-13T15:39:01.320Z,51.02
2023-01-13T15:41:46.960Z,50.92
2023-01-13T15:44:34.163Z,50.91
2023-01-13T15:47:06.802Z,50.99
2023-01-13T15:49:42.601Z,51.15
2023-01-13T15:52:25.717Z,51.28
2023-01-13T15:54:53.703Z,50.94
2023-01-13T15:57:27.311Z,50.92
2023-01-13T15:59:58.082Z,50.97
2023-01-13T16:02:25.249Z,50.92
2023-01-13T16:04:54.006Z,50.90
2023-01-13T16:07:22.685Z,50.76
2023-01-13T16:09:49.796Z,51.01
2023-01-13T16:12:16.653Z,50.71
2023-01-13T16:14:43.426Z,50.85
2023-01-13T16:17:15.557Z,50.95
2023-01-13T16:19:43.408Z,50.62
2023-01-13T16:22:14.592Z,50.58
2023-01-13T16:24:42.072Z,50.36
2023-01-13T16:27:20.572Z,50.54
2023-01-13T16:29:49.031Z,50.59
2023-01-13T16:32:16.128Z,50.27
2023-01-13T16:34:42.955Z,50.22
2023-01-13T16:37:28.041Z,50.60
2023-01-13T16:39:55.350Z,50.35
2023-01-13T16:42:22.196Z,50.16
2023-01-13T16:44:50.575Z,50.50
2023-01-13T16:47:18.174Z,50.70
2023-01-13T16:49:45.880Z,50.78
2023-01-13T16:52:12.776Z,51.01
2023-01-13T16:54:39.658Z,51.01
2023-01-13T16:57:07.684Z,50.97
2023-01-13T16:59:34.627Z,51.09
2023-01-13T17:02:01.963Z,51.27
2023-01-13T17:04:28.815Z,51.08
2023-01-13T17:07:03.886Z,51.12
2023-01-13T17:09:30.867Z,50.87
2023-01-13T17:11:57.987Z,50.90
2023-01-13T17:14:25.532Z,50.97
2023-01-13T17:16:57.118Z,51.25
2023-01-13T17:19:24.444Z,51.18
2023-01-13T17:21:51.479Z,50.97
2023-01-13T17:24:18.984Z,50.99
2023-01-13T17:26:49.207Z,50.92
2023-01-13T17:29:22.942Z,50.76
2023-01-13T17:31:51.464Z,50.61
2023-01-13T17:34:19.298Z,50.59
2023-01-13T17:36:46.085Z,50.53
2023-01-13T17:39:25.419Z,50.41
2023-01-13T17:41:53.668Z,50.59
2023-01-13T17:44:22.604Z,50.67
2023-01-13T17:46:50.010Z,50.43
2023-01-13T17:49:21.182Z,50.43
2023-01-13T17:51:50.973Z,50.35
2023-01-13T17:54:18.406Z,50.42
2023-01-13T17:56:45.202Z,50.30
2023-01-13T17:59:14.832Z,50.18
2023-01-13T18:01:42.021Z,50.04
2023-01-13T18:04:22.596Z,50.14
2023-01-13T18:06:49.741Z,49.86
2023-01-13T18:09:17.001Z,49.69
2023-01-13T18:11:44.497Z,49.50
2023-01-13T18:14:12.613Z,49.59
2023-01-13T18:16:39.783Z,49.51
2023-01-13T18:19:25.561Z,49.43
2023-01-13T18:22:11.447Z,49.35
2023-01-13T18:24:56.485Z,49.51
2023-01-13T18:27:31.051Z,49.53
2023-01-13T18:29:59.894Z,49.60
2023-01-13T18:32:32.944Z,49.27
2023-01-13T18:35:06.449Z,49.59
2023-01-13T18:37:35.756Z,49.37
2023-01-13T18:40:03.594Z,49.57
2023-01-13T18:42:48.812Z,49.38
2023-01-13T18:45:15.703Z,49.37
2023-01-13T18:47:43.497Z,49.44
2023-01-13T18:50:13.554Z,49.50
2023-01-13T18:52:41.247Z,49.39
2023-01-13T18:55:08.574Z,49.46
2023-01-13T18:57:42.687Z,49.27
2023-01-13T19:00:12.978Z,49.48
2023-01-13T19:02:40.048Z,49.19
2023-01-13T19:05:07.437Z,49.39
2023-01-13T19:07:35.637Z,49.51
2023-01-13T19:10:04.485Z,49.35
2023-01-13T19:12:33.437Z,49.49
2023-01-13T19:15:01.448Z,49.34
2023-01-13T19:17:34.202Z,49.20
2023-01-13T19:20:01.133Z,49.38
2023-01-13T19:22:32.507Z,49.26
2023-01-13T19:25:00.736Z,49.45
2023-01-13T19:27:28.277Z,49.41
2023-01-13T19:29:57.986Z,49.62
2023-01-13T19:32:25.999Z,49.46
2023-01-13T19:34:54.931Z,49.51
2023-01-13T19:37:21.870Z,49.47
2023-01-13T19:39:48.746Z,49.59
2023-01-13T19:42:34.185Z,49.57
2023-01-13T19:45:19.274Z,49.67
2023-01-13T19:47:46.119Z,49.78
2023-01-13T19:50:13.963Z,49.77
2023-01-13T19:52:42.177Z,50.09
2023-01-13T19:55:11.609Z,49.80
2023-01-13T19:57:40.270Z,49.73
2023-01-13T20:00:10.136Z,49.94
2023-01-13T20:02:44.903Z,49.95
2023-01-13T20:05:15.109Z,49.79
2023-01-13T20:07:41.889Z,50.06
2023-01-13T20:10:09.283Z,49.73
2023-01-13T20:12:36.530Z,49.61
2023-01-13T20:15:03.737Z,49.72
2023-01-13T20:17:30.849Z,49.69
2023-01-13T20:19:58.939Z,49.65
2023-01-13T20:22:25.746Z,49.49
2023-01-13T20:24:55.165Z,49.52
2023-01-13T20:27:23.850Z,49.58
2023-01-13T20:29:51.165Z,49.49
2023-01-13T20:32:18.607Z,49.15
2023-01-13T20:34:45.421Z,48.87
2023-01-13T20:37:12.198Z,49.02
2023-01-13T20:39:41.149Z,48.88
2023-01-13T20:42:28.195Z,49.06
2023-01-13T20:44:56.174Z,49.08
2023-01-13T20:47:23.019Z,49.26
2023-01-13T20:49:49.840Z,49.17
2023-01-13T20:52:16.804Z,49.31
2023-01-13T20:54:43.644Z,49.53
2023-01-13T20:57:11.760Z,49.68
2023-01-13T20:59:39.068Z,49.82
2023-01-13T21:02:10.602Z,49.77
2023-01-13T21:04:37.398Z,49.84
2023-01-13T21:07:04.365Z,49.88
2023-01-13T21:09:32.129Z,49.87
2023-01-13T21:12:17.284Z,49.86
2023-01-13T21:15:02.492Z,49.89
2023-01-13T21:17:47.999Z,49.86
2023-01-13T21:20:15.581Z,50.03
2023-01-13T21:22:47.467Z,50.27
2023-01-13T21:25:15.800Z,50.34
2023-01-13T21:27:43.977Z,50.72
2023-01-13T21:30:14.621Z,50.61
2023-01-13T21:32:45.311Z,50.87
2023-01-13T21:35:13.781Z,51.21
2023-01-13T21:37:42.935Z,51.04
2023-01-13T21:40:13.453Z,51.34
2023-01-13T21:42:59.249Z,51.12
2023-01-13T21:45:44.570Z,51.26
2023-01-13T21:48:11.687Z,51.70
2023-01-13T21:50:39.086Z,51.65
2023-01-13T21:53:07.885Z,51.51
2023-01-13T21:55:36.621Z,51.91
2023-01-13T21:58:12.775Z,51.81
2023-01-13T22:00:42.833Z,51.90
2023-01-13T22:03:11.350Z,52.30
2023-01-13T22:05:38.507Z,52.09
2023-01-13T22:08:06.629Z,52.48
2023-01-13T22:10:33.945Z,52.48
2023-01-13T22:13:22.461Z,52.44
2023-01-13T22:15:49.277Z,52.32
2023-01-13T22:18:18.014Z,52.74
2023-01-13T22:20:45.674Z,52.53
2023-01-13T22:23:12.470Z,52.39
2023-01-13T22:25:39.439Z,52.25
2023-01-13T22:28:08.905Z,52.42
2023-01-13T22:30:35.654Z,52.54
2023-01-13T22:33:02.543Z,52.43
2023-01-13T22:35:29.471Z,52.19
2023-01-13T22:37:56.244Z,52.22
2023-01-13T22:40:23.069Z,51.99
2023-01-13T22:42:49.847Z,51.85
2023-01-13T22:45:16.690Z,51.76
2023-01-13T22:47:43.540Z,52.13
2023-01-13T22:50:12.473Z,51.89
2023-01-13T22:52:39.690Z,51.76
2023-01-13T22:55:07.296Z,51.48
2023-01-13T22:57:36.415Z,51.51
2023-01-13T23:00:11.631Z,51.36
2023-01-13T23:02:38.808Z,51.36
2023-01-13T23:05:06.134Z,51.51
2023-01-13T23:07:32.996Z,51.20
2023-01-13T23:09:59.826Z,51.47
2023-01-13T23:12:26.664Z,51.47
2023-01-13T23:14:54.484Z,51.36
2023-01-13T23:17:21.268Z,51.06
2023-01-13T23:19:48.352Z,51.11
2023-01-13T23:22:15.500Z,51.23
2023-01-13T23:24:42.313Z,51.60
2023-01-13T23:27:09.094Z,51.20
2023-01-13T23:29:35.994Z,51.60
2023-01-13T23:32:02.745Z,51.49
2023-01-13T23:34:30.416Z,51.32
2023-01-13T23:36:57.219Z,51.42
2023-01-13T23:39:24.556Z,51.74
2023-01-13T23:41:51.414Z,51.62
2023-01-13T23:44:18.241Z,51.43
2023-01-13T23:46:45.037Z,51.80
2023-01-13T23:49:11.861Z,51.75
2023-01-13T23:51:38.929Z,51.66
2023-01-13T23:54:05.731Z,51.55
2023-01-13T23:56:32.850Z,51.36
2023-01-13T23:58:59.652Z,51.46
